sensor_id;sensor_type;location;lat;lon;timestamp;pressure;altitude;pressure_sealevel;temperature;humidity
43420;BME280;29017;51.514;-0.178;2024-01-11T00:00:04;102726.25;;;4.44;76.64
43420;BME280;29017;51.514;-0.178;2024-01-11T00:02:31;102722.09;;;4.40;74.80
43420;BME280;29017;51.514;-0.178;2024-01-11T00:04:58;102717.91;;;4.36;75.09
43420;BME280;29017;51.514;-0.178;2024-01-11T00:07:31;102739.88;;;4.30;75.14
43420;BME280;29017;51.514;-0.178;2024-01-11T00:09:58;102736.28;;;4.32;76.00
43420;BME280;29017;51.514;-0.178;2024-01-11T00:12:24;102738.31;;;4.26;75.99
43420;BME280;29017;51.514;-0.178;2024-01-11T00:14:55;102738.41;;;4.23;75.27
43420;BME280;29017;51.514;-0.178;2024-01-11T00:17:25;102738.50;;;4.21;75.76
43420;BME280;29017;51.514;-0.178;2024-01-11T00:19:52;102729.09;;;4.17;76.43
43420;BME280;29017;51.514;-0.178;2024-01-11T00:22:19;102726.38;;;4.20;76.61
43420;BME280;29017;51.514;-0.178;2024-01-11T00:24:46;102736.81;;;4.20;76.81
43420;BME280;29017;51.514;-0.178;2024-01-11T00:27:24;102737.56;;;4.22;77.00
43420;BME280;29017;51.514;-0.178;2024-01-11T00:29:52;102745.34;;;4.24;76.73
43420;BME280;29017;51.514;-0.178;2024-01-11T00:32:19;102742.88;;;4.21;76.36
43420;BME280;29017;51.514;-0.178;2024-01-11T00:34:48;102752.44;;;4.20;77.23
43420;BME280;29017;51.514;-0.178;2024-01-11T00:37:14;102748.94;;;4.21;77.85
43420;BME280;29017;51.514;-0.178;2024-01-11T00:39:42;102753.19;;;4.22;78.32
43420;BME280;29017;51.514;-0.178;2024-01-11T00:42:10;102746.19;;;4.24;77.63
43420;BME280;29017;51.514;-0.178;2024-01-11T00:44:37;102751.53;;;4.21;76.77
43420;BME280;29017;51.514;-0.178;2024-01-11T00:47:04;102750.75;;;4.19;76.71
43420;BME280;29017;51.514;-0.178;2024-01-11T00:49:30;102754.25;;;4.18;78.03
43420;BME280;29017;51.514;-0.178;2024-01-11T00:51:57;102757.00;;;4.15;78.01
43420;BME280;29017;51.514;-0.178;2024-01-11T00:54:24;102761.47;;;4.12;78.84
43420;BME280;29017;51.514;-0.178;2024-01-11T00:56:51;102761.41;;;4.13;79.33
43420;BME280;29017;51.514;-0.178;2024-01-11T00:59:18;102769.09;;;4.16;78.69
43420;BME280;29017;51.514;-0.178;2024-01-11T01:01:48;102763.25;;;4.11;78.01
43420;BME280;29017;51.514;-0.178;2024-01-11T01:04:15;102759.78;;;4.11;78.87
43420;BME280;29017;51.514;-0.178;2024-01-11T01:06:43;102768.44;;;4.11;79.08
43420;BME280;29017;51.514;-0.178;2024-01-11T01:09:10;102767.66;;;4.09;78.49
43420;BME280;29017;51.514;-0.178;2024-01-11T01:11:37;102772.41;;;4.00;78.21
43420;BME280;29017;51.514;-0.178;2024-01-11T01:14:04;102771.78;;;3.93;78.38
43420;BME280;29017;51.514;-0.178;2024-01-11T01:16:31;102771.94;;;3.90;78.61
43420;BME280;29017;51.514;-0.178;2024-01-11T01:18:58;102776.38;;;3.86;79.15
43420;BME280;29017;51.514;-0.178;2024-01-11T01:21:25;102783.19;;;3.91;80.52
43420;BME280;29017;51.514;-0.178;2024-01-11T01:23:52;102778.09;;;3.87;79.43
43420;BME280;29017;51.514;-0.178;2024-01-11T01:26:19;102784.94;;;3.90;79.97
43420;BME280;29017;51.514;-0.178;2024-01-11T01:28:46;102784.69;;;3.96;80.90
43420;BME280;29017;51.514;-0.178;2024-01-11T01:31:13;102789.06;;;3.96;80.34
43420;BME280;29017;51.514;-0.178;2024-01-11T01:33:41;102794.31;;;3.94;79.50
43420;BME280;29017;51.514;-0.178;2024-01-11T01:36:09;102802.13;;;3.94;80.56
43420;BME280;29017;51.514;-0.178;2024-01-11T01:38:36;102810.78;;;3.95;80.59
43420;BME280;29017;51.514;-0.178;2024-01-11T01:41:03;102823.75;;;3.96;79.87
43420;BME280;29017;51.514;-0.178;2024-01-11T01:43:30;102822.34;;;3.87;79.24
43420;BME280;29017;51.514;-0.178;2024-01-11T01:46:02;102813.88;;;3.82;79.42
43420;BME280;29017;51.514;-0.178;2024-01-11T01:48:29;102815.69;;;3.80;80.22
43420;BME280;29017;51.514;-0.178;2024-01-11T01:50:56;102818.22;;;3.82;80.68
43420;BME280;29017;51.514;-0.178;2024-01-11T01:53:23;102820.72;;;3.85;81.32
43420;BME280;29017;51.514;-0.178;2024-01-11T01:55:51;102825.19;;;3.81;81.24
43420;BME280;29017;51.514;-0.178;2024-01-11T01:58:19;102822.41;;;3.86;81.50
43420;BME280;29017;51.514;-0.178;2024-01-11T02:00:47;102831.06;;;3.86;81.13
43420;BME280;29017;51.514;-0.178;2024-01-11T02:03:15;102831.91;;;3.87;81.35
43420;BME280;29017;51.514;-0.178;2024-01-11T02:05:43;102833.59;;;3.88;81.11
43420;BME280;29017;51.514;-0.178;2024-01-11T02:08:12;102836.22;;;3.88;81.29
43420;BME280;29017;51.514;-0.178;2024-01-11T02:10:42;102834.59;;;3.85;80.71
43420;BME280;29017;51.514;-0.178;2024-01-11T02:13:09;102844.88;;;3.88;80.86
43420;BME280;29017;51.514;-0.178;2024-01-11T02:15:37;102840.88;;;3.80;80.40
43420;BME280;29017;51.514;-0.178;2024-01-11T02:18:04;102848.69;;;3.80;81.34
43420;BME280;29017;51.514;-0.178;2024-01-11T02:20:31;102851.47;;;3.75;81.28
43420;BME280;29017;51.514;-0.178;2024-01-11T02:23:00;102847.94;;;3.76;81.89
43420;BME280;29017;51.514;-0.178;2024-01-11T02:25:27;102849.59;;;3.79;80.75
43420;BME280;29017;51.514;-0.178;2024-01-11T02:27:54;102843.75;;;3.72;80.84
43420;BME280;29017;51.514;-0.178;2024-01-11T02:30:21;102852.41;;;3.73;81.64
43420;BME280;29017;51.514;-0.178;2024-01-11T02:32:49;102855.88;;;3.73;82.53
43420;BME280;29017;51.514;-0.178;2024-01-11T02:35:16;102852.28;;;3.76;82.73
43420;BME280;29017;51.514;-0.178;2024-01-11T02:37:45;102860.19;;;3.74;82.80
43420;BME280;29017;51.514;-0.178;2024-01-11T02:40:16;102852.38;;;3.74;82.37
43420;BME280;29017;51.514;-0.178;2024-01-11T02:42:43;102853.13;;;3.76;83.02
43420;BME280;29017;51.514;-0.178;2024-01-11T02:45:10;102866.28;;;3.73;83.00
43420;BME280;29017;51.514;-0.178;2024-01-11T02:47:37;102851.69;;;3.69;82.68
43420;BME280;29017;51.514;-0.178;2024-01-11T02:50:05;102861.13;;;3.72;83.80
43420;BME280;29017;51.514;-0.178;2024-01-11T02:52:34;102856.00;;;3.70;82.61
43420;BME280;29017;51.514;-0.178;2024-01-11T02:55:04;102862.97;;;3.70;83.26
43420;BME280;29017;51.514;-0.178;2024-01-11T02:57:31;102868.09;;;3.71;83.83
43420;BME280;29017;51.514;-0.178;2024-01-11T02:59:58;102873.41;;;3.68;83.47
43420;BME280;29017;51.514;-0.178;2024-01-11T03:02:24;102877.09;;;3.63;82.26
43420;BME280;29017;51.514;-0.178;2024-01-11T03:04:52;102873.59;;;3.64;82.88
43420;BME280;29017;51.514;-0.178;2024-01-11T03:07:19;102872.88;;;3.60;82.62
43420;BME280;29017;51.514;-0.178;2024-01-11T03:09:45;102880.91;;;3.54;82.60
43420;BME280;29017;51.514;-0.178;2024-01-11T03:12:12;102868.84;;;3.52;82.04
43420;BME280;29017;51.514;-0.178;2024-01-11T03:14:39;102868.97;;;3.49;82.99
43420;BME280;29017;51.514;-0.178;2024-01-11T03:17:06;102874.22;;;3.47;83.41
43420;BME280;29017;51.514;-0.178;2024-01-11T03:19:33;102882.19;;;3.42;82.47
43420;BME280;29017;51.514;-0.178;2024-01-11T03:22:00;102882.31;;;3.39;83.12
43420;BME280;29017;51.514;-0.178;2024-01-11T03:24:31;102888.59;;;3.34;83.40
43420;BME280;29017;51.514;-0.178;2024-01-11T03:26:58;102897.16;;;3.36;83.20
43420;BME280;29017;51.514;-0.178;2024-01-11T03:29:25;102902.38;;;3.36;84.00
43420;BME280;29017;51.514;-0.178;2024-01-11T03:31:52;102891.28;;;3.31;83.24
43420;BME280;29017;51.514;-0.178;2024-01-11T03:34:18;102901.22;;;3.20;83.70
43420;BME280;29017;51.514;-0.178;2024-01-11T03:36:45;102901.28;;;3.18;83.98
43420;BME280;29017;51.514;-0.178;2024-01-11T03:39:12;102902.28;;;3.14;84.34
43420;BME280;29017;51.514;-0.178;2024-01-11T03:41:48;102906.66;;;3.14;84.24
43420;BME280;29017;51.514;-0.178;2024-01-11T03:44:15;102903.19;;;3.13;84.46
43420;BME280;29017;51.514;-0.178;2024-01-11T03:46:42;102912.56;;;3.17;85.07
43420;BME280;29017;51.514;-0.178;2024-01-11T03:49:09;102905.41;;;3.24;85.36
43420;BME280;29017;51.514;-0.178;2024-01-11T03:51:36;102909.72;;;3.25;85.28
43420;BME280;29017;51.514;-0.178;2024-01-11T03:54:03;102906.31;;;3.23;85.22
43420;BME280;29017;51.514;-0.178;2024-01-11T03:56:30;102913.91;;;3.29;85.50
43420;BME280;29017;51.514;-0.178;2024-01-11T03:58:57;102908.59;;;3.32;85.49
43420;BME280;29017;51.514;-0.178;2024-01-11T04:01:24;102918.25;;;3.28;85.24
43420;BME280;29017;51.514;-0.178;2024-01-11T04:03:51;102917.97;;;3.36;85.77
43420;BME280;29017;51.514;-0.178;2024-01-11T04:06:21;102918.78;;;3.38;84.78
43420;BME280;29017;51.514;-0.178;2024-01-11T04:08:49;102926.47;;;3.41;84.99
43420;BME280;29017;51.514;-0.178;2024-01-11T04:11:16;102910.13;;;3.37;84.59
43420;BME280;29017;51.514;-0.178;2024-01-11T04:13:50;102914.50;;;3.35;84.86
43420;BME280;29017;51.514;-0.178;2024-01-11T04:16:17;102923.13;;;3.37;85.38
43420;BME280;29017;51.514;-0.178;2024-01-11T04:18:44;102921.50;;;3.35;84.83
43420;BME280;29017;51.514;-0.178;2024-01-11T04:21:23;102925.91;;;3.33;84.21
43420;BME280;29017;51.514;-0.178;2024-01-11T04:23:51;102923.25;;;3.34;85.66
43420;BME280;29017;51.514;-0.178;2024-01-11T04:26:17;102933.69;;;3.33;85.66
43420;BME280;29017;51.514;-0.178;2024-01-11T04:28:45;102940.44;;;3.38;86.12
43420;BME280;29017;51.514;-0.178;2024-01-11T04:31:13;102943.78;;;3.42;86.78
43420;BME280;29017;51.514;-0.178;2024-01-11T04:33:46;102945.59;;;3.40;86.32
43420;BME280;29017;51.514;-0.178;2024-01-11T04:36:13;102938.47;;;3.45;86.50
43420;BME280;29017;51.514;-0.178;2024-01-11T04:38:40;102938.41;;;3.47;86.10
43420;BME280;29017;51.514;-0.178;2024-01-11T04:41:07;102952.22;;;3.49;85.61
43420;BME280;29017;51.514;-0.178;2024-01-11T04:43:37;102953.16;;;3.46;85.29
43420;BME280;29017;51.514;-0.178;2024-01-11T04:46:19;102954.88;;;3.47;84.32
43420;BME280;29017;51.514;-0.178;2024-01-11T04:48:47;102956.56;;;3.48;85.12
43420;BME280;29017;51.514;-0.178;2024-01-11T04:51:17;102955.88;;;3.43;84.65
43420;BME280;29017;51.514;-0.178;2024-01-11T04:53:44;102961.91;;;3.45;85.10
43420;BME280;29017;51.514;-0.178;2024-01-11T04:56:12;102960.88;;;3.49;86.15
43420;BME280;29017;51.514;-0.178;2024-01-11T04:58:42;102959.13;;;3.50;86.23
43420;BME280;29017;51.514;-0.178;2024-01-11T05:01:16;102966.00;;;3.51;85.95
43420;BME280;29017;51.514;-0.178;2024-01-11T05:03:44;102962.66;;;3.47;85.01
43420;BME280;29017;51.514;-0.178;2024-01-11T05:06:18;102961.03;;;3.44;84.51
43420;BME280;29017;51.514;-0.178;2024-01-11T05:08:51;102969.78;;;3.42;84.98
43420;BME280;29017;51.514;-0.178;2024-01-11T05:11:21;102975.03;;;3.40;85.03
43420;BME280;29017;51.514;-0.178;2024-01-11T05:13:51;102969.06;;;3.38;84.86
43420;BME280;29017;51.514;-0.178;2024-01-11T05:16:22;102973.53;;;3.35;85.35
43420;BME280;29017;51.514;-0.178;2024-01-11T05:18:50;102976.06;;;3.36;85.73
43420;BME280;29017;51.514;-0.178;2024-01-11T05:21:17;102976.13;;;3.35;86.10
43420;BME280;29017;51.514;-0.178;2024-01-11T05:23:44;102978.66;;;3.36;85.92
43420;BME280;29017;51.514;-0.178;2024-01-11T05:26:13;102982.44;;;3.28;85.14
43420;BME280;29017;51.514;-0.178;2024-01-11T05:28:40;102983.28;;;3.28;85.46
43420;BME280;29017;51.514;-0.178;2024-01-11T05:31:07;102986.78;;;3.27;86.30
43420;BME280;29017;51.514;-0.178;2024-01-11T05:33:34;102997.19;;;3.27;86.19
43420;BME280;29017;51.514;-0.178;2024-01-11T05:36:01;102996.31;;;3.27;86.39
43420;BME280;29017;51.514;-0.178;2024-01-11T05:38:29;102997.13;;;3.29;86.22
43420;BME280;29017;51.514;-0.178;2024-01-11T05:40:56;102998.06;;;3.26;86.08
43420;BME280;29017;51.514;-0.178;2024-01-11T05:43:23;103005.88;;;3.26;85.97
43420;BME280;29017;51.514;-0.178;2024-01-11T05:45:50;103008.59;;;3.23;86.34
43420;BME280;29017;51.514;-0.178;2024-01-11T05:48:17;103012.09;;;3.22;86.40
43420;BME280;29017;51.514;-0.178;2024-01-11T05:50:44;103014.72;;;3.21;86.50
43420;BME280;29017;51.514;-0.178;2024-01-11T05:53:11;103011.16;;;3.25;86.38
43420;BME280;29017;51.514;-0.178;2024-01-11T05:55:39;103008.78;;;3.17;86.21
43420;BME280;29017;51.514;-0.178;2024-01-11T05:58:06;103006.94;;;3.21;87.25
43420;BME280;29017;51.514;-0.178;2024-01-11T06:00:33;103012.91;;;3.24;88.02
43420;BME280;29017;51.514;-0.178;2024-01-11T06:03:00;103016.41;;;3.23;87.42
43420;BME280;29017;51.514;-0.178;2024-01-11T06:05:27;103020.72;;;3.24;87.26
43420;BME280;29017;51.514;-0.178;2024-01-11T06:07:54;103013.59;;;3.29;88.18
43420;BME280;29017;51.514;-0.178;2024-01-11T06:10:21;103027.28;;;3.34;87.34
43420;BME280;29017;51.514;-0.178;2024-01-11T06:12:48;103027.28;;;3.34;87.73
43420;BME280;29017;51.514;-0.178;2024-01-11T06:15:15;103034.13;;;3.37;86.72
43420;BME280;29017;51.514;-0.178;2024-01-11T06:17:42;103034.19;;;3.35;86.59
43420;BME280;29017;51.514;-0.178;2024-01-11T06:20:09;103034.09;;;3.38;86.62
43420;BME280;29017;51.514;-0.178;2024-01-11T06:22:37;103037.59;;;3.37;85.87
43420;BME280;29017;51.514;-0.178;2024-01-11T06:25:05;103039.28;;;3.38;85.67
43420;BME280;29017;51.514;-0.178;2024-01-11T06:27:32;103049.00;;;3.33;85.60
43420;BME280;29017;51.514;-0.178;2024-01-11T06:29:58;103053.47;;;3.30;85.96
43420;BME280;29017;51.514;-0.178;2024-01-11T06:32:25;103046.56;;;3.29;86.16
43420;BME280;29017;51.514;-0.178;2024-01-11T06:34:52;103049.00;;;3.33;86.52
43420;BME280;29017;51.514;-0.178;2024-01-11T06:37:19;103044.69;;;3.32;85.80
43420;BME280;29017;51.514;-0.178;2024-01-11T06:39:46;103049.03;;;3.32;85.98
43420;BME280;29017;51.514;-0.178;2024-01-11T06:42:13;103048.19;;;3.31;85.60
43420;BME280;29017;51.514;-0.178;2024-01-11T06:44:41;103055.94;;;3.33;85.78
43420;BME280;29017;51.514;-0.178;2024-01-11T06:47:08;103062.00;;;3.33;86.06
43420;BME280;29017;51.514;-0.178;2024-01-11T06:49:37;103058.72;;;3.28;85.33
43420;BME280;29017;51.514;-0.178;2024-01-11T06:52:05;103064.97;;;3.23;85.63
43420;BME280;29017;51.514;-0.178;2024-01-11T06:54:32;103069.31;;;3.22;85.83
43420;BME280;29017;51.514;-0.178;2024-01-11T06:56:59;103067.66;;;3.20;85.22
43420;BME280;29017;51.514;-0.178;2024-01-11T06:59:26;103065.84;;;3.22;85.26
43420;BME280;29017;51.514;-0.178;2024-01-11T07:01:53;103067.59;;;3.21;85.32
43420;BME280;29017;51.514;-0.178;2024-01-11T07:04:20;103072.50;;;3.30;85.13
43420;BME280;29017;51.514;-0.178;2024-01-11T07:06:47;103070.72;;;3.32;84.76
43420;BME280;29017;51.514;-0.178;2024-01-11T07:09:14;103076.75;;;3.33;84.27
43420;BME280;29017;51.514;-0.178;2024-01-11T07:11:41;103075.66;;;3.40;84.72
43420;BME280;29017;51.514;-0.178;2024-01-11T07:14:08;103084.91;;;3.49;85.63
43420;BME280;29017;51.514;-0.178;2024-01-11T07:16:35;103089.97;;;3.53;85.93
43420;BME280;29017;51.514;-0.178;2024-01-11T07:19:02;103097.66;;;3.56;83.41
43420;BME280;29017;51.514;-0.178;2024-01-11T07:21:29;103092.53;;;3.55;83.63
43420;BME280;29017;51.514;-0.178;2024-01-11T07:23:57;103094.16;;;3.57;83.03
43420;BME280;29017;51.514;-0.178;2024-01-11T07:26:24;103094.09;;;3.59;82.48
43420;BME280;29017;51.514;-0.178;2024-01-11T07:28:52;103099.31;;;3.59;82.31
43420;BME280;29017;51.514;-0.178;2024-01-11T07:31:21;103100.06;;;3.62;82.64
43420;BME280;29017;51.514;-0.178;2024-01-11T07:33:48;103100.88;;;3.64;82.64
43420;BME280;29017;51.514;-0.178;2024-01-11T07:36:16;103105.91;;;3.69;81.65
43420;BME280;29017;51.514;-0.178;2024-01-11T07:38:42;103111.13;;;3.69;81.32
43420;BME280;29017;51.514;-0.178;2024-01-11T07:41:09;103106.69;;;3.71;81.34
43420;BME280;29017;51.514;-0.178;2024-01-11T07:43:37;103098.84;;;3.72;82.43
43420;BME280;29017;51.514;-0.178;2024-01-11T07:46:19;103107.53;;;3.71;82.12
43420;BME280;29017;51.514;-0.178;2024-01-11T07:48:58;103101.41;;;3.74;81.88
43420;BME280;29017;51.514;-0.178;2024-01-11T07:51:26;103109.38;;;3.69;82.13
43420;BME280;29017;51.514;-0.178;2024-01-11T07:53:53;103108.41;;;3.72;82.65
43420;BME280;29017;51.514;-0.178;2024-01-11T07:56:20;103119.63;;;3.74;83.18
43420;BME280;29017;51.514;-0.178;2024-01-11T07:58:47;103129.13;;;3.75;83.18
43420;BME280;29017;51.514;-0.178;2024-01-11T08:01:18;103124.97;;;3.69;83.66
43420;BME280;29017;51.514;-0.178;2024-01-11T08:03:45;103130.13;;;3.71;84.72
43420;BME280;29017;51.514;-0.178;2024-01-11T08:06:12;103128.63;;;3.64;85.29
43420;BME280;29017;51.514;-0.178;2024-01-11T08:08:39;103140.75;;;3.65;86.35
43420;BME280;29017;51.514;-0.178;2024-01-11T08:11:06;103130.22;;;3.68;87.19
43420;BME280;29017;51.514;-0.178;2024-01-11T08:13:33;103131.03;;;3.70;87.47
43420;BME280;29017;51.514;-0.178;2024-01-11T08:16:01;103142.19;;;3.73;87.85
43420;BME280;29017;51.514;-0.178;2024-01-11T08:18:32;103141.19;;;3.77;88.75
43420;BME280;29017;51.514;-0.178;2024-01-11T08:21:03;103138.41;;;3.82;88.54
43420;BME280;29017;51.514;-0.178;2024-01-11T08:23:37;103142.84;;;3.80;88.83
43420;BME280;29017;51.514;-0.178;2024-01-11T08:26:06;103141.47;;;3.70;89.02
43420;BME280;29017;51.514;-0.178;2024-01-11T08:28:34;103143.00;;;3.75;89.34
43420;BME280;29017;51.514;-0.178;2024-01-11T08:31:04;103147.97;;;3.81;89.97
43420;BME280;29017;51.514;-0.178;2024-01-11T08:33:31;103160.00;;;3.85;89.91
43420;BME280;29017;51.514;-0.178;2024-01-11T08:35:58;103160.84;;;3.86;89.62
43420;BME280;29017;51.514;-0.178;2024-01-11T08:38:25;103166.13;;;3.84;89.71
43420;BME280;29017;51.514;-0.178;2024-01-11T08:40:53;103163.50;;;3.84;90.32
43420;BME280;29017;51.514;-0.178;2024-01-11T08:43:20;103177.22;;;3.90;90.68
43420;BME280;29017;51.514;-0.178;2024-01-11T08:45:46;103183.13;;;3.95;91.08
43420;BME280;29017;51.514;-0.178;2024-01-11T08:48:13;103191.59;;;4.01;90.57
43420;BME280;29017;51.514;-0.178;2024-01-11T08:50:40;103194.19;;;4.01;90.82
43420;BME280;29017;51.514;-0.178;2024-01-11T08:53:07;103197.44;;;4.08;92.01
43420;BME280;29017;51.514;-0.178;2024-01-11T08:55:34;103195.63;;;4.10;91.21
43420;BME280;29017;51.514;-0.178;2024-01-11T08:58:01;103200.53;;;4.19;91.76
43420;BME280;29017;51.514;-0.178;2024-01-11T09:00:34;103196.16;;;4.44;96.84
43420;BME280;29017;51.514;-0.178;2024-01-11T09:03:01;103200.81;;;4.59;97.91
43420;BME280;29017;51.514;-0.178;2024-01-11T09:05:28;103201.88;;;4.54;93.89
43420;BME280;29017;51.514;-0.178;2024-01-11T09:07:56;103206.47;;;4.47;90.06
43420;BME280;29017;51.514;-0.178;2024-01-11T09:10:23;103215.38;;;4.42;90.25
43420;BME280;29017;51.514;-0.178;2024-01-11T09:12:53;103219.09;;;4.35;89.72
43420;BME280;29017;51.514;-0.178;2024-01-11T09:15:23;103224.28;;;4.35;90.44
43420;BME280;29017;51.514;-0.178;2024-01-11T09:17:50;103219.09;;;4.35;89.87
43420;BME280;29017;51.514;-0.178;2024-01-11T09:20:18;103226.91;;;4.35;89.91
43420;BME280;29017;51.514;-0.178;2024-01-11T09:22:46;103220.03;;;4.32;89.90
43420;BME280;29017;51.514;-0.178;2024-01-11T09:25:13;103227.91;;;4.30;90.23
43420;BME280;29017;51.514;-0.178;2024-01-11T09:27:41;103218.19;;;4.36;90.64
43420;BME280;29017;51.514;-0.178;2024-01-11T09:30:09;103216.69;;;4.28;89.55
43420;BME280;29017;51.514;-0.178;2024-01-11T09:32:43;103210.47;;;4.32;89.93
43420;BME280;29017;51.514;-0.178;2024-01-11T09:35:10;103226.00;;;4.36;90.22
43420;BME280;29017;51.514;-0.178;2024-01-11T09:37:41;103225.72;;;4.43;90.18
43420;BME280;29017;51.514;-0.178;2024-01-11T09:40:10;103218.59;;;4.48;89.82
43420;BME280;29017;51.514;-0.178;2024-01-11T09:42:45;103226.38;;;4.50;90.02
43420;BME280;29017;51.514;-0.178;2024-01-11T09:45:13;103222.69;;;4.55;90.21
43420;BME280;29017;51.514;-0.178;2024-01-11T09:47:44;103238.13;;;4.61;90.25
43420;BME280;29017;51.514;-0.178;2024-01-11T09:50:18;103233.59;;;4.66;90.00
43420;BME280;29017;51.514;-0.178;2024-01-11T09:52:48;103247.16;;;4.76;89.57
43420;BME280;29017;51.514;-0.178;2024-01-11T09:55:18;103242.50;;;4.84;88.75
43420;BME280;29017;51.514;-0.178;2024-01-11T09:57:48;103243.31;;;4.86;89.00
43420;BME280;29017;51.514;-0.178;2024-01-11T10:00:17;103245.56;;;4.95;88.95
43420;BME280;29017;51.514;-0.178;2024-01-11T10:02:46;103242.16;;;4.93;88.37
43420;BME280;29017;51.514;-0.178;2024-01-11T10:05:15;103251.34;;;5.03;88.94
43420;BME280;29017;51.514;-0.178;2024-01-11T10:07:44;103250.22;;;5.10;88.04
43420;BME280;29017;51.514;-0.178;2024-01-11T10:10:12;103257.88;;;5.15;87.42
43420;BME280;29017;51.514;-0.178;2024-01-11T10:12:42;103261.06;;;5.23;88.14
43420;BME280;29017;51.514;-0.178;2024-01-11T10:15:12;103252.28;;;5.24;88.02
43420;BME280;29017;51.514;-0.178;2024-01-11T10:17:42;103259.00;;;5.31;87.59
43420;BME280;29017;51.514;-0.178;2024-01-11T10:20:14;103257.09;;;5.35;87.69
43420;BME280;29017;51.514;-0.178;2024-01-11T10:22:42;103260.38;;;5.40;87.37
43420;BME280;29017;51.514;-0.178;2024-01-11T10:25:11;103259.44;;;5.42;86.44
43420;BME280;29017;51.514;-0.178;2024-01-11T10:27:42;103264.44;;;5.48;87.18
43420;BME280;29017;51.514;-0.178;2024-01-11T10:30:13;103266.84;;;5.53;86.45
43420;BME280;29017;51.514;-0.178;2024-01-11T10:32:45;103268.53;;;5.54;86.22
43420;BME280;29017;51.514;-0.178;2024-01-11T10:35:13;103267.56;;;5.56;86.31
43420;BME280;29017;51.514;-0.178;2024-01-11T10:37:41;103262.97;;;5.63;86.09
43420;BME280;29017;51.514;-0.178;2024-01-11T10:40:09;103270.69;;;5.66;85.77
43420;BME280;29017;51.514;-0.178;2024-01-11T10:42:42;103283.72;;;5.66;85.06
43420;BME280;29017;51.514;-0.178;2024-01-11T10:45:13;103280.16;;;5.69;84.70
43420;BME280;29017;51.514;-0.178;2024-01-11T10:47:49;103287.16;;;5.68;84.40
43420;BME280;29017;51.514;-0.178;2024-01-11T10:50:21;103285.13;;;5.75;84.53
43420;BME280;29017;51.514;-0.178;2024-01-11T10:55:18;103286.38;;;5.88;84.33
43420;BME280;29017;51.514;-0.178;2024-01-11T10:57:46;103296.41;;;5.98;84.18
43420;BME280;29017;51.514;-0.178;2024-01-11T11:00:15;103302.78;;;6.13;83.44
43420;BME280;29017;51.514;-0.178;2024-01-11T11:02:43;103307.66;;;6.21;82.79
43420;BME280;29017;51.514;-0.178;2024-01-11T11:05:10;103307.38;;;6.28;81.86
43420;BME280;29017;51.514;-0.178;2024-01-11T11:07:39;103312.50;;;6.30;82.09
43420;BME280;29017;51.514;-0.178;2024-01-11T11:10:06;103314.88;;;6.36;81.16
43420;BME280;29017;51.514;-0.178;2024-01-11T11:12:39;103319.00;;;6.41;81.04
43420;BME280;29017;51.514;-0.178;2024-01-11T11:15:11;103331.16;;;6.42;80.95
43420;BME280;29017;51.514;-0.178;2024-01-11T11:17:39;103323.72;;;6.33;80.96
43420;BME280;29017;51.514;-0.178;2024-01-11T11:20:09;103331.56;;;6.33;81.24
43420;BME280;29017;51.514;-0.178;2024-01-11T11:22:40;103328.41;;;6.45;81.16
43420;BME280;29017;51.514;-0.178;2024-01-11T11:25:10;103327.84;;;6.39;81.11
43420;BME280;29017;51.514;-0.178;2024-01-11T11:27:37;103334.84;;;6.38;80.32
43420;BME280;29017;51.514;-0.178;2024-01-11T11:30:04;103320.84;;;6.39;80.93
43420;BME280;29017;51.514;-0.178;2024-01-11T11:32:38;103328.50;;;6.44;81.60
43420;BME280;29017;51.514;-0.178;2024-01-11T11:35:09;103327.25;;;6.53;81.31
43420;BME280;29017;51.514;-0.178;2024-01-11T11:37:37;103328.81;;;6.57;79.94
43420;BME280;29017;51.514;-0.178;2024-01-11T11:40:08;103332.28;;;6.57;79.43
43420;BME280;29017;51.514;-0.178;2024-01-11T11:42:37;103327.00;;;6.38;78.27
43420;BME280;29017;51.514;-0.178;2024-01-11T11:45:07;103323.56;;;6.36;78.82
43420;BME280;29017;51.514;-0.178;2024-01-11T11:47:37;103328.50;;;6.44;79.27
43420;BME280;29017;51.514;-0.178;2024-01-11T11:50:08;103331.97;;;6.44;79.33
43420;BME280;29017;51.514;-0.178;2024-01-11T11:52:40;103340.34;;;6.53;78.86
43420;BME280;29017;51.514;-0.178;2024-01-11T11:55:10;103335.81;;;6.56;76.92
43420;BME280;29017;51.514;-0.178;2024-01-11T11:57:38;103343.81;;;6.53;77.25
43420;BME280;29017;51.514;-0.178;2024-01-11T12:00:05;103347.72;;;6.43;76.81
43420;BME280;29017;51.514;-0.178;2024-01-11T12:02:33;103341.50;;;6.45;78.07
43420;BME280;29017;51.514;-0.178;2024-01-11T12:05:03;103354.69;;;6.42;77.00
43420;BME280;29017;51.514;-0.178;2024-01-11T12:07:31;103356.13;;;6.29;77.20
43420;BME280;29017;51.514;-0.178;2024-01-11T12:09:58;103367.97;;;6.16;77.58
43420;BME280;29017;51.514;-0.178;2024-01-11T12:12:25;103359.78;;;6.04;77.79
43420;BME280;29017;51.514;-0.178;2024-01-11T12:14:53;103353.81;;;6.00;77.87
43420;BME280;29017;51.514;-0.178;2024-01-11T12:17:20;103352.00;;;6.02;78.19
43420;BME280;29017;51.514;-0.178;2024-01-11T12:19:47;103350.97;;;6.06;78.49
43420;BME280;29017;51.514;-0.178;2024-01-11T12:22:15;103346.59;;;6.07;78.19
43420;BME280;29017;51.514;-0.178;2024-01-11T12:24:41;103350.72;;;6.12;78.89
43420;BME280;29017;51.514;-0.178;2024-01-11T12:27:08;103348.97;;;6.13;77.43
43420;BME280;29017;51.514;-0.178;2024-01-11T12:29:39;103351.44;;;6.16;77.30
43420;BME280;29017;51.514;-0.178;2024-01-11T12:32:20;103355.75;;;6.17;77.09
43420;BME280;29017;51.514;-0.178;2024-01-11T12:34:47;103348.81;;;6.16;77.52
43420;BME280;29017;51.514;-0.178;2024-01-11T12:37:15;103353.09;;;6.18;77.13
43420;BME280;29017;51.514;-0.178;2024-01-11T12:39:42;103342.75;;;6.15;78.00
43420;BME280;29017;51.514;-0.178;2024-01-11T12:42:08;103348.28;;;6.08;77.62
43420;BME280;29017;51.514;-0.178;2024-01-11T12:44:36;103358.94;;;6.03;78.21
43420;BME280;29017;51.514;-0.178;2024-01-11T12:47:04;103353.63;;;6.05;78.42
43420;BME280;29017;51.514;-0.178;2024-01-11T12:49:32;103343.72;;;6.13;78.96
43420;BME280;29017;51.514;-0.178;2024-01-11T12:51:59;103342.56;;;6.20;79.72
43420;BME280;29017;51.514;-0.178;2024-01-11T12:54:26;103340.94;;;6.17;79.15
43420;BME280;29017;51.514;-0.178;2024-01-11T12:56:53;103344.50;;;6.15;77.59